Aérodrome :
LOGIN :

S'inscrire | Disclaimer

   EN    FR    IT 

 










Légende :    VFR   VFR Marginal   IFR   IFR Intensif   IFR Très Intensif
Visi : 
Plafond : 
>= 8 km
>= 3000ft
5 à 8 km
1000 à 3000 ft
1500m à 5 km
500 à 1000 ft
800 à 1500m
200 à 500 ft
< 800m
< 200 ft
Symboles :   Orages  Brouillard  Fortes neiges  Fortes précipitations  Vent > 20 kt
SIGMETs :   Divers  Orages  Givrage  Turbulence  Onde Orograph.  Cendres Volcan.







- Altitude de l'aérodrome : 138 ft
- Code IATA : BIO


LEBB - Bilbao

DERNIER METAR :
  • 221400Z 29004KT 250V330 9000 -RA FEW026 SCT038 BKN054 08/06 Q1014 TEMPO 3000 RA

METARs EXPIRÉS :
  • 221330Z 32013KT 290V050 6000 -RA FEW016 SCT025 BKN035 08/06 Q1014 TEMPO 3000 RA
  • 221321Z 33012KT 300V050 5000 RA FEW016 SCT025 BKN045 08/07 Q1014 TEMPO 3000
  • 221300Z 30008KT 220V340 9999 -RA FEW016 SCT025 BKN045 08/06 Q1014 TEMPO 3000 RA
  • 221251Z 31010KT 7000 -RA FEW018 SCT025 BKN040 08/07 Q1014 TEMPO 3000 RA
  • 221238Z 31012G33KT 260V010 5000 RA FEW018 SCT025 BKN040 08/06 Q1014 TEMPO 3000
  • 221234Z 31012G33KT 280V350 6000 2500SW +RA FEW018 SCT025 BKN040 09/06 Q1014 TEMPO 3000
  • 221200Z 27010G20KT 230V320 9999 -RA FEW020 BKN032 09/06 Q1014 TEMPO 3000 RA
  • 221130Z 28006KT 190V340 9999 FEW020 BKN032 09/06 Q1014 TEMPO 3000 RA
  • 221100Z 24008KT 190V290 9999 -RA FEW014 SCT030 BKN040 08/06 Q1014 TEMPO 3000 RA

TAF TAF LEBB
Valide du 22 à 12h jusqu'au 23 à 12h UTC


221100Z 2212/2312 30009KT 9999 SCT020 BKN030 TX12/2308Z TN06/2303Z
TEMPO 2212/2312 3000 RA BKN014
TEMPO 2212/2312 30015G25KT
TEMPO 2303/2311 33030G45KT
PROB40
TEMPO 2303/2312 3000 SHRA RA SCT030TCU
Pas de NOTAMs connus pour ce terrain.
1 SIGMET publié pour la FIR Madrid (LECM) :
 
Onde orographique forte
LECM SIGMET 3 VALID 221300/221700 LEVA
LECM MADRID FIR/UIR SEV MTW FCST N OF LINE N4240 W001 - N4230 E00010 FL060/360 STNR NC=



MET'MAP, la Météo Aéronautique d'un coup d'oeil ! - Copyright ORBIFLY Décembre 2007 - Disclaimer

ORBIFLY MET'MAP TEAM :

Programmation & Développement : Alexandra Zaïnal
Conception & Développement : Baudouin d'Aumeries
Co-Programmation & Développement : Marc-Olivier Méhu
Soutien technique & logistique : Manuel Goepfert

Contact : metmap@orbifly.com




SOURCES & CREDITS :

   NOAA